createdAt,value
2019-02-21T00:00:37.446Z,10.10
2019-02-21T00:03:05.622Z,10.63
2019-02-21T00:05:33.688Z,9.70
2019-02-21T00:08:01.781Z,9.83
2019-02-21T00:10:29.865Z,10.00
2019-02-21T00:12:57.960Z,10.40
2019-02-21T00:15:26.042Z,10.43
2019-02-21T00:17:54.136Z,11.13
2019-02-21T00:20:22.217Z,10.43
2019-02-21T00:22:50.290Z,10.90
2019-02-21T00:25:18.429Z,10.20
2019-02-21T00:27:46.529Z,10.03
2019-02-21T00:30:14.628Z,10.17
2019-02-21T00:32:42.698Z,10.13
2019-02-21T00:35:10.819Z,9.27
2019-02-21T00:37:38.899Z,10.10
2019-02-21T00:40:07.576Z,10.57
2019-02-21T00:42:35.674Z,10.80
2019-02-21T00:45:04.030Z,10.33
2019-02-21T00:47:32.103Z,11.17
2019-02-21T00:50:00.339Z,11.33
2019-02-21T00:52:28.546Z,11.40
2019-02-21T00:54:57.143Z,11.77
2019-02-21T00:57:25.216Z,11.63
2019-02-21T00:59:53.307Z,10.33
2019-02-21T01:02:21.573Z,10.13
2019-02-21T01:04:49.674Z,10.03
2019-02-21T01:07:17.765Z,10.23
2019-02-21T01:09:45.834Z,10.10
2019-02-21T01:12:13.939Z,10.57
2019-02-21T01:14:42.016Z,9.20
2019-02-21T01:17:10.123Z,10.90
2019-02-21T01:19:38.204Z,10.47
2019-02-21T01:22:06.358Z,11.77
2019-02-21T01:24:34.447Z,10.30
2019-02-21T01:27:02.606Z,11.47
2019-02-21T01:29:30.689Z,11.47
2019-02-21T01:31:58.787Z,11.47
2019-02-21T01:34:26.883Z,10.83
2019-02-21T01:36:54.982Z,10.53
2019-02-21T01:39:23.059Z,10.73
2019-02-21T01:41:51.165Z,11.83
2019-02-21T01:44:19.274Z,10.73
2019-02-21T01:46:47.372Z,11.70
2019-02-21T01:49:15.476Z,10.50
2019-02-21T01:51:43.596Z,10.87
2019-02-21T01:54:11.713Z,11.57
2019-02-21T01:56:39.834Z,12.93
2019-02-21T01:59:07.936Z,12.40
2019-02-21T02:01:36.057Z,11.17
2019-02-21T02:04:04.148Z,11.87
2019-02-21T02:06:32.251Z,11.50
2019-02-21T02:09:00.371Z,11.77
2019-02-21T02:11:28.499Z,11.40
2019-02-21T02:13:56.601Z,11.53
2019-02-21T02:16:24.711Z,12.20
2019-02-21T02:18:52.815Z,11.30
2019-02-21T02:21:20.971Z,11.80
2019-02-21T02:23:49.073Z,12.80
2019-02-21T02:26:17.143Z,12.47
2019-02-21T02:28:45.258Z,11.10
2019-02-21T02:31:21.943Z,11.07
2019-02-21T02:33:43.216Z,11.60
2019-02-21T02:36:11.294Z,11.57
2019-02-21T02:38:39.384Z,10.90
2019-02-21T02:41:07.488Z,12.00
2019-02-21T02:43:35.613Z,12.10
2019-02-21T02:46:03.782Z,11.83
2019-02-21T02:48:31.845Z,12.67
2019-02-21T02:51:00.003Z,12.07
2019-02-21T02:53:33.972Z,12.03
2019-02-21T02:56:02.086Z,11.03
2019-02-21T02:58:30.167Z,12.77
2019-02-21T03:00:58.273Z,10.93
2019-02-21T03:03:26.361Z,10.93
2019-02-21T03:05:54.486Z,11.93
2019-02-21T03:08:22.565Z,11.83
2019-02-21T03:10:50.653Z,11.83
2019-02-21T03:13:18.732Z,12.60
2019-02-21T03:15:46.845Z,11.07
2019-02-21T03:18:14.911Z,12.10
2019-02-21T03:20:43.013Z,11.00
2019-02-21T03:23:11.096Z,11.97
2019-02-21T03:25:39.191Z,11.47
2019-02-21T03:28:07.340Z,12.13
2019-02-21T03:30:35.507Z,11.67
2019-02-21T03:33:03.665Z,11.57
2019-02-21T03:35:31.803Z,12.07
2019-02-21T03:37:59.893Z,10.73
2019-02-21T03:40:27.994Z,10.77
2019-02-21T03:42:56.131Z,10.53
2019-02-21T03:45:24.247Z,10.80
2019-02-21T03:47:52.346Z,11.07
2019-02-21T03:50:20.436Z,10.53
2019-02-21T03:52:48.589Z,10.30
2019-02-21T03:55:16.709Z,10.10
2019-02-21T03:57:44.810Z,10.43
2019-02-21T04:00:12.967Z,10.97
2019-02-21T04:02:41.051Z,11.10
2019-02-21T04:05:09.200Z,10.33
2019-02-21T04:07:37.365Z,10.40
2019-02-21T04:10:06.922Z,10.67
2019-02-21T04:12:35.027Z,11.50
2019-02-21T04:15:04.147Z,10.33
2019-02-21T04:17:32.241Z,10.33
2019-02-21T04:20:00.318Z,11.13
2019-02-21T04:22:28.422Z,11.87
2019-02-21T04:24:56.510Z,10.83
2019-02-21T04:27:24.616Z,10.37
2019-02-21T04:29:52.713Z,9.83
2019-02-21T04:32:20.793Z,10.50
2019-02-21T04:34:48.912Z,10.93
2019-02-21T04:37:17.056Z,10.87
2019-02-21T04:39:45.153Z,12.20
2019-02-21T04:42:13.258Z,11.20
2019-02-21T04:44:41.354Z,12.20
2019-02-21T04:47:09.469Z,10.40
2019-02-21T04:49:37.566Z,12.07
2019-02-21T04:52:05.654Z,12.13
2019-02-21T04:54:33.849Z,10.57
2019-02-21T04:57:01.969Z,11.97
2019-02-21T04:59:30.133Z,10.83
2019-02-21T05:01:58.222Z,11.07
2019-02-21T05:04:26.328Z,10.90
2019-02-21T05:06:54.407Z,11.03
2019-02-21T05:09:22.516Z,10.70
2019-02-21T05:11:50.595Z,11.07
2019-02-21T05:14:18.692Z,11.47
2019-02-21T05:16:46.790Z,13.43
2019-02-21T05:19:14.908Z,12.47
2019-02-21T05:21:43.038Z,16.13
2019-02-21T05:24:11.188Z,14.87
2019-02-21T05:26:43.836Z,15.30
2019-02-21T05:29:13.521Z,12.67
2019-02-21T05:32:01.357Z,14.83
2019-02-21T05:34:31.160Z,14.43
2019-02-21T05:37:17.503Z,15.43
2019-02-21T05:40:02.732Z,14.73
2019-02-21T05:42:42.870Z,14.83
2019-02-21T05:45:15.634Z,14.53
2019-02-21T05:47:48.317Z,14.00
2019-02-21T05:50:24.211Z,14.20
2019-02-21T05:53:10.714Z,14.80
2019-02-21T05:55:43.211Z,14.60
2019-02-21T05:58:13.002Z,14.70
2019-02-21T06:00:45.739Z,15.67
2019-02-21T06:03:27.430Z,14.67
2019-02-21T06:06:02.660Z,15.23
2019-02-21T06:08:38.232Z,16.07
2019-02-21T06:11:13.908Z,16.53
2019-02-21T06:13:46.634Z,15.43
2019-02-21T06:16:16.377Z,15.20
2019-02-21T06:18:52.012Z,14.00
2019-02-21T06:21:24.800Z,14.80
2019-02-21T06:23:54.530Z,14.63
2019-02-21T06:26:26.957Z,14.70
2019-02-21T06:29:13.276Z,15.10
2019-02-21T06:31:41.357Z,14.13
2019-02-21T06:34:09.432Z,14.70
2019-02-21T06:36:37.538Z,14.07
2019-02-21T06:39:07.213Z,13.67
2019-02-21T06:41:35.367Z,13.60
2019-02-21T06:44:03.463Z,13.83
2019-02-21T06:46:31.565Z,13.90
2019-02-21T06:48:59.673Z,16.03
2019-02-21T06:51:27.756Z,15.97
2019-02-21T06:53:55.828Z,14.17
2019-02-21T06:56:23.956Z,18.40
2019-02-21T06:58:52.068Z,19.80
2019-02-21T07:01:28.872Z,16.20
2019-02-21T07:03:49.977Z,14.57
2019-02-21T07:06:19.147Z,16.57
2019-02-21T07:08:47.435Z,14.40
2019-02-21T07:11:15.520Z,14.17
2019-02-21T07:13:43.618Z,25.97
2019-02-21T07:16:13.088Z,17.87
2019-02-21T07:18:41.477Z,14.53
2019-02-21T07:21:09.559Z,16.33
2019-02-21T07:23:43.415Z,15.63
2019-02-21T07:26:07.520Z,14.67
2019-02-21T07:28:35.599Z,14.97
2019-02-21T07:31:03.709Z,19.33
2019-02-21T07:33:31.836Z,20.93
2019-02-21T07:35:59.900Z,20.07
2019-02-21T07:38:27.997Z,19.77
2019-02-21T07:40:56.095Z,17.60
2019-02-21T07:43:24.939Z,16.93
2019-02-21T07:45:53.189Z,17.30
2019-02-21T07:48:21.283Z,16.40
2019-02-21T07:50:49.364Z,16.83
2019-02-21T07:53:17.454Z,16.53
2019-02-21T07:55:45.547Z,16.23
2019-02-21T07:58:13.655Z,15.90
2019-02-21T08:00:41.753Z,18.33
2019-02-21T08:03:09.829Z,17.37
2019-02-21T08:05:37.926Z,19.87
2019-02-21T08:08:06.034Z,19.77
2019-02-21T08:10:34.258Z,16.20
2019-02-21T08:13:02.387Z,16.70
2019-02-21T08:15:30.503Z,15.90
2019-02-21T08:17:58.576Z,17.63
2019-02-21T08:20:34.123Z,17.83
2019-02-21T08:22:56.639Z,17.33
2019-02-21T08:25:24.900Z,19.60
2019-02-21T08:27:53.026Z,19.57
2019-02-21T08:30:21.240Z,19.07
2019-02-21T08:32:59.831Z,19.30
2019-02-21T08:35:28.321Z,20.33
2019-02-21T08:37:56.450Z,20.17
2019-02-21T08:40:25.153Z,19.83
2019-02-21T08:42:53.371Z,19.90
2019-02-21T08:45:21.538Z,20.07
2019-02-21T08:47:49.669Z,21.30
2019-02-21T08:50:17.818Z,20.83
2019-02-21T08:52:45.921Z,19.43
2019-02-21T08:55:14.044Z,21.90
2019-02-21T08:57:42.181Z,20.57
2019-02-21T09:00:11.914Z,21.47
2019-02-21T09:02:42.771Z,21.57
2019-02-21T09:05:19.185Z,22.20
2019-02-21T09:07:47.285Z,21.57
2019-02-21T09:10:15.387Z,22.00
2019-02-21T09:12:47.810Z,22.13
2019-02-21T09:15:14.631Z,21.43
2019-02-21T09:17:42.737Z,21.70
2019-02-21T09:20:11.379Z,23.03
2019-02-21T09:22:39.499Z,23.60
2019-02-21T09:25:11.398Z,22.87
2019-02-21T09:27:39.482Z,23.07
2019-02-21T09:30:09.099Z,22.43
2019-02-21T09:32:37.229Z,23.50
2019-02-21T09:35:05.700Z,23.53
2019-02-21T09:37:33.875Z,23.80
2019-02-21T09:40:02.028Z,23.03
2019-02-21T09:42:30.135Z,22.00
2019-02-21T09:44:58.256Z,22.37
2019-02-21T09:47:26.344Z,22.73
2019-02-21T09:49:56.456Z,22.00
2019-02-21T09:52:24.251Z,23.00
2019-02-21T09:54:52.336Z,23.70
2019-02-21T09:57:20.428Z,23.30
2019-02-21T09:59:48.549Z,22.50
2019-02-21T10:02:16.664Z,22.33
2019-02-21T10:04:44.728Z,22.00
2019-02-21T10:07:12.804Z,21.57
2019-02-21T10:09:40.900Z,21.40
2019-02-21T10:12:08.982Z,21.77
2019-02-21T10:14:37.185Z,22.13
2019-02-21T10:17:05.315Z,22.07
2019-02-21T10:19:35.630Z,21.67
2019-02-21T10:22:04.462Z,22.97
2019-02-21T10:24:32.724Z,22.13
2019-02-21T10:27:00.820Z,22.23
2019-02-21T10:29:29.832Z,21.90
2019-02-21T10:31:58.184Z,24.77
2019-02-21T10:34:26.277Z,22.57
2019-02-21T10:36:54.359Z,22.17
2019-02-21T10:39:22.457Z,22.53
2019-02-21T10:41:50.554Z,22.03
2019-02-21T10:44:18.644Z,20.97
2019-02-21T10:46:46.726Z,21.13
2019-02-21T10:49:16.265Z,21.63
2019-02-21T10:51:44.648Z,20.90
2019-02-21T10:54:12.964Z,21.70
2019-02-21T10:56:41.338Z,21.67
2019-02-21T10:59:12.852Z,21.53
2019-02-21T11:01:41.009Z,21.43
2019-02-21T11:04:09.086Z,21.30
2019-02-21T11:06:37.184Z,21.53
2019-02-21T11:09:06.972Z,20.67
2019-02-21T11:11:35.293Z,21.27
2019-02-21T11:14:03.505Z,22.50
2019-02-21T11:16:31.700Z,20.93
2019-02-21T11:18:59.876Z,21.53
2019-02-21T11:21:29.684Z,22.60
2019-02-21T11:23:57.777Z,21.57
2019-02-21T11:26:26.085Z,21.17
2019-02-21T11:28:54.314Z,20.23
2019-02-21T11:31:22.528Z,21.40
2019-02-21T11:33:50.749Z,21.10
2019-02-21T11:36:18.980Z,20.77
2019-02-21T11:38:47.109Z,21.93
2019-02-21T11:41:15.295Z,20.23
2019-02-21T11:43:43.367Z,21.07
2019-02-21T11:46:11.454Z,19.90
2019-02-21T11:48:39.584Z,20.53
2019-02-21T11:51:07.721Z,17.37
2019-02-21T11:53:38.033Z,17.67
2019-02-21T11:56:05.761Z,17.60
2019-02-21T11:58:33.841Z,18.13
2019-02-21T12:01:02.031Z,18.67
2019-02-21T12:03:30.112Z,18.33
2019-02-21T12:05:58.299Z,19.17
2019-02-21T12:08:26.428Z,17.40
2019-02-21T12:10:54.507Z,17.53
2019-02-21T12:13:22.615Z,20.23
2019-02-21T12:15:50.691Z,25.27
2019-02-21T12:18:18.812Z,17.03
2019-02-21T12:20:46.943Z,16.60
2019-02-21T12:23:17.657Z,16.33
2019-02-21T12:25:44.938Z,16.20
2019-02-21T12:28:13.030Z,14.63
2019-02-21T12:30:41.123Z,15.27
2019-02-21T12:33:09.256Z,15.17
2019-02-21T12:35:37.508Z,13.63
2019-02-21T12:38:05.649Z,14.60
2019-02-21T12:40:33.778Z,15.23
2019-02-21T12:43:01.862Z,15.97
2019-02-21T12:45:30.210Z,15.23
2019-02-21T12:47:58.655Z,15.50
2019-02-21T12:50:27.104Z,15.33
2019-02-21T12:52:55.520Z,14.93
2019-02-21T12:55:29.265Z,14.90
2019-02-21T12:57:54.225Z,14.80
2019-02-21T13:00:22.918Z,14.60
2019-02-21T13:02:51.324Z,14.93
2019-02-21T13:05:19.752Z,13.83
2019-02-21T13:07:48.199Z,13.57
2019-02-21T13:10:18.943Z,15.50
2019-02-21T13:12:47.353Z,14.33
2019-02-21T13:15:16.202Z,15.33
2019-02-21T13:17:44.609Z,15.10
2019-02-21T13:20:16.329Z,15.77
2019-02-21T13:22:44.808Z,13.87
2019-02-21T13:25:18.371Z,14.00
2019-02-21T13:27:46.929Z,13.73
2019-02-21T13:30:16.741Z,14.10
2019-02-21T13:32:45.343Z,12.80
2019-02-21T13:35:14.021Z,14.60
2019-02-21T13:37:42.536Z,14.37
2019-02-21T13:40:14.036Z,14.87
2019-02-21T13:42:42.473Z,13.67
2019-02-21T13:45:13.161Z,14.27
2019-02-21T13:47:41.655Z,14.33
2019-02-21T13:50:15.880Z,14.43
2019-02-21T13:52:44.292Z,15.73
2019-02-21T13:55:12.860Z,15.17
2019-02-21T13:57:41.328Z,15.73
2019-02-21T14:00:21.141Z,15.47
2019-02-21T14:02:49.633Z,15.07
2019-02-21T14:05:18.085Z,15.63
2019-02-21T14:07:46.577Z,15.00
2019-02-21T14:10:15.358Z,14.87
2019-02-21T14:12:43.756Z,15.87
2019-02-21T14:15:18.500Z,16.00
2019-02-21T14:17:47.060Z,14.77
2019-02-21T14:20:15.476Z,15.50
2019-02-21T14:22:43.889Z,16.17
2019-02-21T14:25:12.672Z,15.63
2019-02-21T14:27:41.179Z,14.67
2019-02-21T14:30:18.004Z,16.67
2019-02-21T14:32:46.432Z,15.13
2019-02-21T14:35:15.507Z,15.60
2019-02-21T14:37:43.963Z,14.17
2019-02-21T14:40:14.647Z,15.80
2019-02-21T14:42:43.077Z,14.93
2019-02-21T14:45:14.310Z,15.40
2019-02-21T14:47:42.756Z,15.73
2019-02-21T14:50:12.306Z,16.53
2019-02-21T14:52:40.798Z,15.63
2019-02-21T14:55:11.561Z,15.57
2019-02-21T14:57:41.230Z,15.43
2019-02-21T15:00:18.865Z,14.87
2019-02-21T15:02:47.308Z,15.50
2019-02-21T15:05:15.785Z,15.33
2019-02-21T15:07:44.220Z,15.47
2019-02-21T15:10:12.645Z,15.03
2019-02-21T15:12:41.079Z,14.53
2019-02-21T15:15:15.249Z,14.33
2019-02-21T15:17:43.701Z,16.40
2019-02-21T15:20:14.257Z,15.03
2019-02-21T15:22:42.682Z,15.57
2019-02-21T15:25:11.113Z,14.67
2019-02-21T15:27:39.568Z,15.63
2019-02-21T15:30:11.039Z,14.33
2019-02-21T15:32:39.476Z,13.47
2019-02-21T15:35:07.969Z,15.13
2019-02-21T15:37:36.400Z,14.03
2019-02-21T15:40:08.806Z,15.13
2019-02-21T15:42:37.490Z,14.17
2019-02-21T15:45:21.921Z,14.03
2019-02-21T15:47:41.758Z,14.70
2019-02-21T15:50:12.610Z,15.50
2019-02-21T15:52:41.417Z,16.13
2019-02-21T15:55:12.968Z,17.43
2019-02-21T15:57:41.669Z,16.20
2019-02-21T16:00:15.349Z,16.27
2019-02-21T16:02:43.791Z,16.60
2019-02-21T16:05:12.214Z,16.23
2019-02-21T16:07:40.628Z,16.23
2019-02-21T16:10:12.139Z,15.83
2019-02-21T16:12:41.072Z,15.47
2019-02-21T16:15:16.168Z,16.03
2019-02-21T16:17:43.957Z,15.63
2019-02-21T16:20:14.517Z,16.33
2019-02-21T16:22:43.684Z,15.43
2019-02-21T16:25:17.400Z,15.57
2019-02-21T16:27:45.832Z,14.93
2019-02-21T16:30:14.988Z,14.97
2019-02-21T16:32:43.450Z,15.20
2019-02-21T16:35:13.817Z,14.73
2019-02-21T16:37:42.321Z,13.73
2019-02-21T16:40:15.408Z,14.67
2019-02-21T16:42:43.948Z,15.13
2019-02-21T16:45:20.784Z,12.93
2019-02-21T16:47:49.204Z,14.03
2019-02-21T16:50:28.822Z,14.20
2019-02-21T16:52:47.778Z,13.47
2019-02-21T16:55:21.017Z,13.67
2019-02-21T16:57:49.497Z,13.93
2019-02-21T17:00:19.166Z,13.70
2019-02-21T17:02:47.644Z,14.40
2019-02-21T17:05:16.454Z,21.30
2019-02-21T17:07:44.848Z,13.87
2019-02-21T17:10:32.618Z,13.07
2019-02-21T17:13:01.039Z,13.67
2019-02-21T17:15:29.568Z,14.00
2019-02-21T17:17:58.055Z,13.83
2019-02-21T17:20:26.526Z,15.03
2019-02-21T17:22:54.944Z,14.60
2019-02-21T17:25:23.373Z,13.20
2019-02-21T17:27:51.826Z,14.83
2019-02-21T17:30:20.787Z,15.43
2019-02-21T17:32:49.326Z,15.80
2019-02-21T17:35:18.028Z,15.37
2019-02-21T17:37:46.729Z,14.77
2019-02-21T17:40:23.337Z,15.43
2019-02-21T17:42:53.689Z,15.73
2019-02-21T17:45:22.734Z,16.40
2019-02-21T17:47:57.208Z,14.97
2019-02-21T17:50:36.064Z,16.20
2019-02-21T17:53:04.544Z,14.43
2019-02-21T17:55:33.019Z,14.70
2019-02-21T17:58:01.440Z,14.63
2019-02-21T18:00:31.578Z,15.80
2019-02-21T18:03:00.012Z,16.53
2019-02-21T18:05:28.485Z,16.77
2019-02-21T18:07:56.958Z,17.03
2019-02-21T18:10:25.421Z,17.37
2019-02-21T18:12:53.905Z,16.17
2019-02-21T18:15:22.315Z,15.77
2019-02-21T18:17:50.789Z,15.63
2019-02-21T18:20:19.231Z,16.20
2019-02-21T18:22:47.655Z,16.57
2019-02-21T18:25:31.347Z,17.00
2019-02-21T18:27:59.844Z,17.50
2019-02-21T18:30:28.298Z,17.63
2019-02-21T18:32:56.726Z,17.70
2019-02-21T18:35:25.157Z,16.03
2019-02-21T18:37:53.560Z,15.80
2019-02-21T18:40:24.018Z,16.57
2019-02-21T18:42:52.464Z,15.90
2019-02-21T18:45:21.084Z,17.43
2019-02-21T18:47:49.511Z,16.43
2019-02-21T18:50:17.937Z,17.17
2019-02-21T18:52:47.242Z,17.27
2019-02-21T18:55:15.727Z,16.50
2019-02-21T18:57:44.156Z,15.37
2019-02-21T19:00:24.127Z,16.30
2019-02-21T19:02:53.295Z,16.03
2019-02-21T19:05:22.142Z,16.27
2019-02-21T19:08:00.397Z,18.23
2019-02-21T19:10:21.884Z,16.20
2019-02-21T19:12:50.701Z,17.20
2019-02-21T19:15:20.666Z,17.87
2019-02-21T19:17:49.253Z,16.87
2019-02-21T19:20:21.374Z,16.80
2019-02-21T19:22:49.882Z,16.67
2019-02-21T19:25:18.401Z,16.30
2019-02-21T19:27:46.930Z,16.93
2019-02-21T19:30:18.429Z,16.57
2019-02-21T19:32:46.934Z,15.93
2019-02-21T19:35:16.179Z,16.47
2019-02-21T19:37:44.601Z,16.77
2019-02-21T19:40:13.229Z,17.03
2019-02-21T19:42:41.813Z,17.20
2019-02-21T19:45:10.415Z,16.90
2019-02-21T19:47:58.161Z,17.53
2019-02-21T19:50:26.921Z,17.67
2019-02-21T19:52:55.323Z,17.53
2019-02-21T19:55:24.001Z,17.13
2019-02-21T19:57:52.417Z,17.57
2019-02-21T20:00:30.402Z,17.03
2019-02-21T20:02:58.874Z,16.73
2019-02-21T20:05:28.861Z,17.20
2019-02-21T20:08:07.868Z,17.73
2019-02-21T20:10:27.442Z,16.90
2019-02-21T20:12:57.592Z,16.83
2019-02-21T20:15:26.024Z,16.77
2019-02-21T20:17:54.498Z,17.80
2019-02-21T20:20:27.432Z,17.03
2019-02-21T20:22:55.915Z,17.73
2019-02-21T20:25:24.339Z,18.43
2019-02-21T20:27:52.740Z,17.70
2019-02-21T20:30:21.248Z,18.27
2019-02-21T20:32:49.711Z,18.77
2019-02-21T20:35:18.209Z,18.57
2019-02-21T20:37:46.673Z,18.23
2019-02-21T20:40:15.256Z,19.03
2019-02-21T20:42:43.767Z,18.47
2019-02-21T20:45:13.472Z,18.87
2019-02-21T20:47:41.969Z,19.07
2019-02-21T20:50:12.776Z,18.57
2019-02-21T20:52:41.408Z,19.60
2019-02-21T20:55:11.174Z,18.80
2019-02-21T20:57:39.699Z,19.57
2019-02-21T21:00:13.761Z,19.23
2019-02-21T21:02:42.357Z,19.10
2019-02-21T21:05:10.860Z,19.03
2019-02-21T21:07:39.279Z,19.37
2019-02-21T21:10:12.292Z,19.10
2019-02-21T21:12:40.705Z,18.67
2019-02-21T21:15:10.662Z,21.10
2019-02-21T21:17:39.085Z,19.63
2019-02-21T21:20:16.569Z,19.17
2019-02-21T21:22:40.520Z,19.37
2019-02-21T21:25:11.866Z,20.10
2019-02-21T21:27:40.346Z,19.00
2019-02-21T21:30:11.510Z,20.10
2019-02-21T21:32:40.063Z,20.03
2019-02-21T21:35:08.613Z,20.83
2019-02-21T21:37:37.065Z,19.40
2019-02-21T21:40:16.784Z,19.47
2019-02-21T21:42:45.211Z,20.43
2019-02-21T21:45:19.651Z,19.43
2019-02-21T21:47:48.098Z,19.90
2019-02-21T21:50:17.943Z,18.83
2019-02-21T21:52:46.502Z,20.13
2019-02-21T21:55:15.377Z,18.60
2019-02-21T21:57:44.055Z,19.97
2019-02-21T22:00:17.935Z,17.33
2019-02-21T22:02:46.083Z,16.40
2019-02-21T22:05:14.543Z,16.67
2019-02-21T22:07:42.993Z,17.60
2019-02-21T22:10:13.153Z,17.50
2019-02-21T22:12:41.693Z,18.70
2019-02-21T22:15:12.891Z,17.30
2019-02-21T22:17:42.211Z,17.60
2019-02-21T22:20:10.836Z,17.80
2019-02-21T22:22:39.359Z,17.77
2019-02-21T22:25:10.254Z,17.80
2019-02-21T22:27:38.736Z,18.83
2019-02-21T22:30:15.937Z,18.73
2019-02-21T22:32:44.625Z,18.30
2019-02-21T22:35:13.279Z,20.23
2019-02-21T22:37:41.717Z,18.37
2019-02-21T22:40:12.477Z,20.10
2019-02-21T22:42:40.911Z,18.90
2019-02-21T22:45:10.313Z,19.63
2019-02-21T22:47:38.912Z,19.63
2019-02-21T22:50:15.523Z,18.70
2019-02-21T22:52:47.079Z,19.83
2019-02-21T22:55:15.607Z,19.33
2019-02-21T22:57:44.091Z,19.53
2019-02-21T23:00:36.706Z,22.27
2019-02-21T23:03:08.287Z,22.03
2019-02-21T23:06:03.640Z,19.03
2019-02-21T23:08:46.954Z,19.53
2019-02-21T23:11:15.482Z,18.77
2019-02-21T23:13:44.260Z,19.37
2019-02-21T23:16:12.693Z,19.10
2019-02-21T23:18:41.300Z,18.87
2019-02-21T23:21:11.412Z,17.70
2019-02-21T23:23:41.643Z,19.20
2019-02-21T23:26:10.935Z,19.20
2019-02-21T23:28:39.533Z,18.97
2019-02-21T23:31:08.076Z,19.40
2019-02-21T23:33:38.126Z,18.67
2019-02-21T23:36:08.176Z,18.57
2019-02-21T23:38:37.035Z,18.87
2019-02-21T23:41:05.509Z,19.43
2019-02-21T23:43:37.140Z,20.77
2019-02-21T23:46:05.784Z,18.67
2019-02-21T23:48:34.227Z,20.17
2019-02-21T23:51:02.632Z,19.57
2019-02-21T23:53:31.076Z,20.40
2019-02-21T23:55:59.573Z,20.40
2019-02-21T23:58:28.640Z,18.67
